Time;durP1;ratioP1;P1;durP2;ratioP2;P2;SDS_P1;SDS_P2;PMS_P1;PMS_P2;Temp;Humidity;BMP_temperature;BMP_pressure;BME280_temperature;BME280_humidity;BME280_pressure;Samples;Min_cycle;Max_cycle;Signal;HPM_P1;HPM_P2
2021/11/19 00:01:31;;;;;;;28.67;10.10;;;12.30;99.90;;;;;;6214563;23;20026;-82
2021/11/19 00:03:57;;;;;;;30.50;11.02;;;12.20;99.90;;;;;;6214645;23;20027;-82
2021/11/19 00:06:24;;;;;;;28.65;10.20;;;12.20;99.90;;;;;;6214530;23;20012;-83
2021/11/19 00:08:50;;;;;;;30.20;10.93;;;12.20;99.90;;;;;;6188072;23;20069;-82
2021/11/19 00:11:24;;;;;;;21.95;9.93;;;12.20;99.90;;;;;;6187695;23;20012;-80
2021/11/19 00:13:50;;;;;;;31.05;10.15;;;12.30;99.90;;;;;;6187543;23;20012;-81
2021/11/19 00:16:19;;;;;;;26.23;9.98;;;12.30;99.90;;;;;;6187575;23;20008;-82
2021/11/19 00:18:46;;;;;;;30.38;9.77;;;12.20;99.90;;;;;;6213917;23;20091;-81
2021/11/19 00:21:12;;;;;;;32.85;11.05;;;12.20;99.90;;;;;;6187896;23;20027;-81
2021/11/19 00:23:40;;;;;;;28.45;10.38;;;12.20;99.90;;;;;;6187142;23;20026;-82
2021/11/19 00:26:06;;;;;;;27.20;9.85;;;12.20;99.90;;;;;;6212044;23;20012;-83
2021/11/19 00:28:32;;;;;;;27.88;9.70;;;12.10;99.90;;;;;;6212974;23;20181;-81
2021/11/19 00:30:57;;;;;;;27.67;9.35;;;12.20;99.90;;;;;;6211943;23;20078;-82
2021/11/19 00:33:24;;;;;;;27.98;9.95;;;12.20;99.90;;;;;;6187331;23;20020;-82
2021/11/19 00:35:50;;;;;;;23.05;9.18;;;12.20;99.90;;;;;;6188584;23;20052;-82
2021/11/19 00:38:18;;;;;;;31.83;10.40;;;12.10;99.90;;;;;;6214700;23;20389;-82
2021/11/19 00:40:56;;;;;;;24.15;9.70;;;12.20;99.90;;;;;;6211648;23;20066;-82
2021/11/19 00:43:23;;;;;;;26.45;9.05;;;12.10;99.90;;;;;;6188041;23;20012;-81
2021/11/19 00:45:50;;;;;;;34.28;10.60;;;12.10;99.90;;;;;;6212356;23;20102;-81
2021/11/19 00:48:18;;;;;;;25.17;9.65;;;12.10;99.90;;;;;;6187696;23;20445;-81
2021/11/19 00:50:55;;;;;;;30.92;9.55;;;12.00;99.90;;;;;;6213389;23;20515;-81
2021/11/19 00:53:21;;;;;;;28.92;8.98;;;12.00;99.90;;;;;;6213913;23;20008;-81
2021/11/19 00:55:47;;;;;;;25.80;9.63;;;12.00;99.90;;;;;;6212842;23;20012;-81
2021/11/19 00:58:14;;;;;;;31.75;8.95;;;12.00;99.90;;;;;;6214300;23;20012;-82
2021/11/19 01:00:50;;;;;;;30.50;9.63;;;12.00;99.90;;;;;;6214359;23;20110;-82
2021/11/19 01:03:16;;;;;;;25.05;9.32;;;12.00;99.90;;;;;;6166516;23;20289;-83
2021/11/19 01:05:42;;;;;;;23.75;8.85;;;12.00;99.90;;;;;;6216458;23;20016;-82
2021/11/19 01:08:08;;;;;;;19.88;8.50;;;12.00;99.90;;;;;;6200973;23;20297;-82
2021/11/19 01:10:37;;;;;;;25.75;8.73;;;12.10;99.90;;;;;;6242847;23;20509;-82
2021/11/19 01:13:04;;;;;;;27.83;8.48;;;12.00;99.90;;;;;;6215537;23;20020;-81
2021/11/19 01:15:34;;;;;;;32.35;8.63;;;12.10;99.90;;;;;;6238850;23;20094;-81
2021/11/19 01:18:27;;;;;;;26.25;8.55;;;12.00;99.90;;;;;;6215097;23;20095;-83
2021/11/19 01:21:05;;;;;;;25.85;8.07;;;12.00;99.90;;;;;;6241533;23;20019;-80
2021/11/19 01:23:34;;;;;;;27.75;9.00;;;12.00;99.90;;;;;;6239697;23;20486;-80
2021/11/19 01:26:05;;;;;;;22.05;7.53;;;12.00;99.90;;;;;;6238392;23;20016;-80
2021/11/19 01:28:31;;;;;;;24.77;7.97;;;12.00;99.90;;;;;;6239814;23;20008;-81
2021/11/19 01:31:01;;;;;;;27.98;8.20;;;12.00;99.90;;;;;;6240685;23;20047;-80
2021/11/19 01:33:28;;;;;;;22.00;7.78;;;12.10;99.90;;;;;;6213497;23;20516;-80
2021/11/19 01:35:53;;;;;;;30.83;8.35;;;11.90;99.90;;;;;;6240275;23;20051;-80
2021/11/19 01:38:20;;;;;;;30.73;8.10;;;12.10;99.90;;;;;;6242021;23;20012;-81
2021/11/19 01:40:51;;;;;;;27.42;8.45;;;12.00;99.90;;;;;;6240301;23;20075;-82
2021/11/19 01:43:17;;;;;;;28.75;7.68;;;11.90;99.90;;;;;;6241419;22;20791;-81
2021/11/19 01:45:54;;;;;;;25.48;8.00;;;12.10;99.90;;;;;;6239380;23;20360;-81
2021/11/19 01:48:24;;;;;;;34.30;8.73;;;12.00;99.90;;;;;;6216344;23;20012;-81
2021/11/19 01:51:23;;;;;;;29.13;8.60;;;12.10;99.90;;;;;;6240710;23;20044;-81
2021/11/19 01:54:03;;;;;;;27.73;8.40;;;12.10;99.90;;;;;;6153718;23;20103;-80
2021/11/19 01:56:38;;;;;;;25.33;8.13;;;12.10;99.90;;;;;;6152835;23;20020;-81
2021/11/19 01:59:27;;;;;;;29.83;8.52;;;12.10;99.90;;;;;;6149798;23;20021;-81
2021/11/19 02:01:58;;;;;;;25.88;7.57;;;12.10;99.90;;;;;;6151915;23;20104;-82
2021/11/19 02:04:30;;;;;;;26.10;7.40;;;12.10;99.90;;;;;;6178474;22;20052;-81
2021/11/19 02:07:06;;;;;;;25.30;7.90;;;12.20;99.90;;;;;;6151902;23;20025;-80
2021/11/19 02:09:49;;;;;;;27.38;8.00;;;12.10;99.90;;;;;;6154873;23;20017;-80
2021/11/19 02:12:23;;;;;;;23.80;7.85;;;12.10;99.90;;;;;;6126492;23;20017;-80
2021/11/19 02:14:55;;;;;;;;;;;12.10;99.90;;;;;;6151923;23;20020;-80
2021/11/19 02:17:20;;;;;;;30.02;7.35;;;12.10;99.90;;;;;;6151468;23;19912;-82
2021/11/19 02:20:00;;;;;;;26.45;7.10;;;12.10;99.90;;;;;;6177749;23;20028;-81
2021/11/19 02:22:37;;;;;;;28.02;7.30;;;12.20;99.90;;;;;;6154300;23;20107;-80
2021/11/19 02:25:28;;;;;;;20.90;7.10;;;12.20;99.90;;;;;;6153606;23;20188;-81
2021/11/19 02:28:02;;;;;;;23.70;6.70;;;12.20;99.90;;;;;;6155615;23;20017;-81
2021/11/19 02:30:33;;;;;;;26.23;7.47;;;12.30;99.90;;;;;;6162483;23;20119;-83
2021/11/19 02:33:08;;;;;;;24.00;7.40;;;12.20;99.90;;;;;;6239483;23;20023;-81
2021/11/19 02:35:40;;;;;;;22.83;6.80;;;12.20;99.90;;;;;;6240323;23;20012;-80
2021/11/19 02:38:10;;;;;;;26.95;7.57;;;12.20;99.90;;;;;;6240693;23;20016;-81
2021/11/19 02:40:40;;;;;;;26.10;7.03;;;12.20;99.90;;;;;;6214816;23;20012;-81
2021/11/19 02:43:21;;;;;;;30.10;7.57;;;12.20;99.90;;;;;;6241356;23;20013;-81
2021/11/19 02:45:49;;;;;;;23.55;7.10;;;12.20;99.90;;;;;;6241710;22;20106;-81
2021/11/19 02:48:19;;;;;;;24.88;7.35;;;12.20;99.90;;;;;;6239910;23;20340;-81
2021/11/19 02:50:46;;;;;;;18.95;7.68;;;12.10;99.90;;;;;;6238863;23;20039;-81
2021/11/19 02:53:12;;;;;;;32.45;8.27;;;12.10;99.90;;;;;;6215434;23;20019;-80
2021/11/19 02:55:42;;;;;;;18.25;6.10;;;12.10;99.90;;;;;;6239361;23;20016;-82
2021/11/19 02:58:12;;;;;;;23.17;7.95;;;12.10;99.90;;;;;;6213890;23;20016;-83
2021/11/19 03:01:01;;;;;;;22.95;7.75;;;12.10;99.90;;;;;;6242156;22;20020;-81
2021/11/19 03:03:27;;;;;;;25.65;7.68;;;12.10;99.90;;;;;;6153900;23;20128;-81
2021/11/19 03:05:54;;;;;;;23.02;8.02;;;12.00;99.90;;;;;;6153281;23;20393;-80
2021/11/19 03:08:20;;;;;;;22.15;8.52;;;12.10;99.90;;;;;;6143070;23;20029;-81
2021/11/19 03:10:48;;;;;;;21.35;8.05;;;12.10;99.90;;;;;;6175637;23;20080;-82
2021/11/19 03:13:16;;;;;;;27.23;8.52;;;12.10;99.90;;;;;;6151237;23;20070;-80
2021/11/19 03:15:44;;;;;;;22.92;8.60;;;12.10;99.90;;;;;;6151431;23;20016;-80
2021/11/19 03:18:13;;;;;;;27.58;10.18;;;12.00;99.90;;;;;;6152216;23;20013;-80
2021/11/19 03:20:40;;;;;;;26.58;9.73;;;12.00;99.90;;;;;;6177766;23;20835;-81
2021/11/19 03:23:07;;;;;;;27.63;10.32;;;12.00;99.90;;;;;;6152285;23;20088;-80
2021/11/19 03:25:37;;;;;;;23.67;9.82;;;11.90;99.90;;;;;;6150895;23;20021;-81
2021/11/19 03:28:04;;;;;;;17.77;8.30;;;12.00;99.90;;;;;;6178662;23;20164;-79
2021/11/19 03:30:31;;;;;;;28.38;9.07;;;12.00;99.90;;;;;;6175573;23;20024;-80
2021/11/19 03:32:58;;;;;;;29.25;9.90;;;12.00;99.90;;;;;;6152229;22;20433;-79
2021/11/19 03:35:24;;;;;;;29.10;10.35;;;11.90;99.90;;;;;;6153428;23;20109;-81
2021/11/19 03:37:52;;;;;;;32.40;10.65;;;11.90;99.90;;;;;;6154313;23;20460;-80
2021/11/19 03:40:22;;;;;;;25.27;9.38;;;11.90;99.90;;;;;;6159361;23;20016;-79
2021/11/19 03:42:48;;;;;;;30.88;9.35;;;11.90;99.90;;;;;;6238942;23;20024;-80
2021/11/19 03:45:17;;;;;;;26.65;9.60;;;11.80;99.90;;;;;;6238094;23;20012;-78
2021/11/19 03:47:45;;;;;;;26.83;9.45;;;11.70;99.90;;;;;;6212086;23;20024;-81
2021/11/19 03:50:20;;;;;;;29.77;8.90;;;11.70;99.90;;;;;;6239719;23;20083;-81
2021/11/19 03:52:46;;;;;;;34.50;9.88;;;11.70;99.90;;;;;;6213291;23;20448;-80
2021/11/19 03:55:23;;;;;;;23.70;9.10;;;11.60;99.90;;;;;;6238113;23;20016;-82
2021/11/19 03:57:50;;;;;;;30.73;9.65;;;11.60;99.90;;;;;;6212826;23;20510;-80
2021/11/19 04:00:21;;;;;;;25.65;9.23;;;11.60;99.90;;;;;;6210530;23;20024;-81
2021/11/19 04:02:47;;;;;;;30.27;8.88;;;11.50;99.90;;;;;;6213720;23;20062;-80
2021/11/19 04:05:14;;;;;;;28.63;9.50;;;11.40;99.90;;;;;;6236676;23;20024;-81
2021/11/19 04:07:40;;;;;;;33.90;9.35;;;11.40;99.90;;;;;;6213808;23;20091;-81
2021/11/19 04:10:08;;;;;;;22.20;9.23;;;11.40;99.90;;;;;;6215226;23;20074;-80
2021/11/19 04:12:33;;;;;;;24.70;8.88;;;11.40;99.90;;;;;;6212134;23;20079;-79
2021/11/19 04:15:01;;;;;;;24.20;9.15;;;11.40;99.90;;;;;;6209997;23;20043;-80
2021/11/19 04:17:27;;;;;;;27.80;10.25;;;11.30;99.90;;;;;;6214073;23;20012;-81
2021/11/19 04:19:53;;;;;;;28.05;10.02;;;11.30;99.90;;;;;;6210629;23;20012;-81
2021/11/19 04:22:20;;;;;;;23.27;8.90;;;11.30;99.90;;;;;;6212875;23;20015;-82
2021/11/19 04:25:04;;;;;;;28.02;8.85;;;11.20;99.90;;;;;;6212092;23;20078;-82
2021/11/19 04:27:34;;;;;;;26.52;9.70;;;11.20;99.90;;;;;;6187843;23;20078;-83
2021/11/19 04:30:01;;;;;;;25.73;9.43;;;11.20;99.90;;;;;;6186973;23;20091;-83
2021/11/19 04:32:27;;;;;;;34.20;9.55;;;11.20;99.90;;;;;;6186134;23;20042;-83
2021/11/19 04:34:56;;;;;;;24.63;9.48;;;11.20;99.90;;;;;;6187111;23;20012;-81
2021/11/19 04:37:22;;;;;;;21.00;9.55;;;11.10;99.90;;;;;;6214289;23;20397;-81
2021/11/19 04:39:51;;;;;;;31.08;9.30;;;11.20;99.90;;;;;;6186187;23;20028;-82
2021/11/19 04:42:19;;;;;;;32.83;10.15;;;11.10;99.90;;;;;;6213691;23;20012;-82
2021/11/19 04:44:48;;;;;;;28.70;10.40;;;11.20;99.90;;;;;;6187897;23;20024;-82
2021/11/19 04:47:14;;;;;;;25.40;10.07;;;11.10;99.90;;;;;;6187123;23;20087;-82
2021/11/19 04:49:40;;;;;;;30.42;10.93;;;11.30;99.90;;;;;;6213169;23;20113;-82
2021/11/19 04:52:09;;;;;;;25.25;9.88;;;11.40;99.90;;;;;;6214546;23;20739;-81
2021/11/19 04:54:35;;;;;;;25.30;10.40;;;11.30;99.90;;;;;;6212589;23;20460;-83
2021/11/19 04:57:02;;;;;;;33.22;11.50;;;11.40;99.90;;;;;;6189054;23;20016;-80
2021/11/19 04:59:33;;;;;;;36.72;10.55;;;11.30;99.90;;;;;;6212842;23;20757;-82
2021/11/19 05:02:03;;;;;;;27.42;10.38;;;11.30;99.90;;;;;;6189679;23;20436;-82
2021/11/19 05:04:29;;;;;;;29.77;11.55;;;11.40;99.90;;;;;;6187060;23;20078;-82
2021/11/19 05:06:54;;;;;;;34.85;11.27;;;11.50;99.90;;;;;;6188162;23;20020;-79
2021/11/19 05:09:21;;;;;;;28.63;10.70;;;11.40;99.90;;;;;;6229823;23;20463;-82
2021/11/19 05:11:55;;;;;;;33.35;10.68;;;11.40;99.90;;;;;;6240111;23;20042;-84
2021/11/19 05:14:21;;;;;;;30.13;10.45;;;11.50;99.90;;;;;;6241284;22;20008;-83
2021/11/19 05:16:48;;;;;;;33.75;10.93;;;11.50;99.90;;;;;;6239493;23;20729;-85
2021/11/19 05:19:14;;;;;;;32.30;11.32;;;11.50;99.90;;;;;;6239691;23;20070;-82
2021/11/19 05:21:41;;;;;;;27.30;11.10;;;11.40;99.90;;;;;;6240019;23;20440;-82
2021/11/19 05:24:08;;;;;;;28.65;11.18;;;11.50;99.90;;;;;;6240403;23;20012;-82
2021/11/19 05:26:36;;;;;;;29.55;11.45;;;11.50;99.90;;;;;;6216636;23;20016;-82
2021/11/19 05:29:02;;;;;;;31.33;11.27;;;11.60;99.90;;;;;;6216680;23;20016;-82
2021/11/19 05:31:28;;;;;;;28.23;11.07;;;11.50;99.90;;;;;;6213492;23;20012;-83
2021/11/19 05:33:54;;;;;;;26.50;10.82;;;11.50;99.90;;;;;;6262689;22;20008;-84
2021/11/19 05:36:20;;;;;;;31.33;11.55;;;11.60;99.90;;;;;;6240026;23;20051;-83
2021/11/19 05:38:46;;;;;;;28.63;10.80;;;11.60;99.90;;;;;;6240478;23;20016;-82
2021/11/19 05:41:19;;;;;;;31.63;10.43;;;11.60;99.90;;;;;;6213497;23;20498;-82
2021/11/19 05:43:48;;;;;;;20.65;9.75;;;11.60;99.90;;;;;;6214886;23;20416;-85
2021/11/19 05:46:15;;;;;;;30.83;11.27;;;11.60;99.90;;;;;;6213596;23;20027;-84
2021/11/19 05:48:41;;;;;;;27.55;9.93;;;11.70;99.90;;;;;;6240187;23;20012;-84
2021/11/19 05:51:08;;;;;;;33.15;11.40;;;11.60;99.90;;;;;;6240324;23;20015;-85
2021/11/19 05:53:34;;;;;;;30.00;10.77;;;11.60;99.90;;;;;;6216454;23;20048;-82
2021/11/19 05:56:00;;;;;;;28.73;11.80;;;11.60;99.90;;;;;;6241466;23;20107;-82
2021/11/19 05:58:25;;;;;;;35.50;11.55;;;11.60;99.90;;;;;;6241863;23;20395;-83
2021/11/19 06:01:01;;;;;;;31.60;9.93;;;11.60;99.90;;;;;;6213338;23;20012;-84
2021/11/19 06:03:26;;;;;;;30.08;9.82;;;11.60;99.90;;;;;;6241924;23;20438;-84
2021/11/19 06:05:53;;;;;;;29.63;10.15;;;11.60;99.90;;;;;;6240881;23;20020;-83
2021/11/19 06:08:22;;;;;;;35.90;11.27;;;11.60;99.90;;;;;;6242607;23;20026;-82
2021/11/19 06:10:57;;;;;;;35.83;11.95;;;11.60;99.90;;;;;;6240625;23;20016;-85
2021/11/19 06:13:33;;;;;;;28.20;10.18;;;11.80;99.90;;;;;;6239490;23;20012;-81
2021/11/19 06:16:07;;;;;;;28.25;10.75;;;11.50;99.90;;;;;;6243080;22;20036;-83
2021/11/19 06:18:39;;;;;;;34.08;10.55;;;11.50;99.90;;;;;;6191799;23;20020;-81
2021/11/19 06:21:09;;;;;;;29.48;11.40;;;11.50;99.90;;;;;;6240239;23;20020;-82
2021/11/19 06:23:39;;;;;;;32.47;10.43;;;11.60;99.90;;;;;;6241046;23;20027;-84
2021/11/19 06:26:08;;;;;;;29.20;10.38;;;11.50;99.90;;;;;;6214963;23;20723;-84
2021/11/19 06:28:41;;;;;;;28.15;10.23;;;11.50;99.90;;;;;;6242026;23;20066;-85
2021/11/19 06:31:08;;;;;;;29.50;9.90;;;11.50;99.90;;;;;;6191803;23;20086;-82
2021/11/19 06:33:34;;;;;;;29.85;10.57;;;11.50;99.90;;;;;;6242345;22;20012;-84
2021/11/19 06:36:00;;;;;;;31.42;10.40;;;11.50;99.90;;;;;;6243473;23;20087;-82
2021/11/19 06:38:29;;;;;;;31.00;10.07;;;11.50;99.90;;;;;;6243195;23;20058;-83
2021/11/19 06:40:54;;;;;;;28.95;10.50;;;11.60;99.90;;;;;;6240748;23;20012;-83
2021/11/19 06:43:41;;;;;;;36.83;11.60;;;11.60;99.90;;;;;;6214761;23;20050;-85
2021/11/19 06:46:08;;;;;;;31.90;9.95;;;11.50;99.90;;;;;;6215706;23;20019;-77
2021/11/19 06:48:33;;;;;;;35.33;10.60;;;11.50;99.90;;;;;;6213512;23;20061;-79
2021/11/19 06:51:03;;;;;;;28.52;10.88;;;11.60;99.90;;;;;;6214315;23;20099;-81
2021/11/19 06:54:24;;;;;;;26.35;10.32;;;11.60;99.90;;;;;;6213923;23;20507;-82
2021/11/19 06:56:51;;;;;;;27.63;9.10;;;11.60;99.90;;;;;;6238607;23;20012;-81
2021/11/19 06:59:18;;;;;;;34.97;10.13;;;11.60;99.90;;;;;;6213316;23;20082;-81
2021/11/19 07:01:44;;;;;;;29.05;10.18;;;11.60;99.90;;;;;;6212642;23;20066;-82
2021/11/19 07:04:10;;;;;;;29.88;9.68;;;11.60;99.90;;;;;;6238911;23;20407;-81
2021/11/19 07:06:37;;;;;;;29.95;9.18;;;11.60;99.90;;;;;;6241227;23;20012;-80
2021/11/19 07:09:05;;;;;;;28.40;10.15;;;11.60;99.90;;;;;;6239573;23;20095;-81
2021/11/19 07:11:31;;;;;;;33.20;9.75;;;11.60;99.90;;;;;;6213201;23;20316;-81
2021/11/19 07:13:57;;;;;;;27.23;9.68;;;11.60;99.90;;;;;;6215017;23;20019;-81
2021/11/19 07:16:28;;;;;;;36.70;9.10;;;11.60;99.90;;;;;;6237488;23;20040;-82
2021/11/19 07:18:55;;;;;;;29.63;9.10;;;11.60;99.90;;;;;;6241440;22;20395;-81
2021/11/19 07:21:23;;;;;;;33.03;8.80;;;11.60;99.90;;;;;;6237588;23;20103;-80
2021/11/19 07:23:49;;;;;;;30.65;8.85;;;11.60;99.90;;;;;;6238035;23;20020;-81
2021/11/19 07:26:16;;;;;;;27.60;8.95;;;11.60;99.90;;;;;;6239393;23;20324;-82
2021/11/19 07:28:42;;;;;;;28.40;8.43;;;11.70;99.90;;;;;;6238689;23;20074;-82
2021/11/19 07:31:09;;;;;;;30.38;8.13;;;11.60;99.90;;;;;;6239771;23;20037;-83
2021/11/19 07:33:37;;;;;;;39.40;8.38;;;11.70;99.90;;;;;;6216255;23;20078;-81
2021/11/19 07:36:06;;;;;;;22.38;7.55;;;11.70;99.90;;;;;;6238071;23;20016;-78
2021/11/19 07:38:42;;;;;;;29.13;7.18;;;11.70;99.90;;;;;;6240133;23;20768;-85
2021/11/19 07:41:13;;;;;;;30.85;7.40;;;11.70;99.90;;;;;;6212933;23;20098;-80
2021/11/19 07:43:42;;;;;;;25.42;7.43;;;11.70;99.90;;;;;;6212527;23;20016;-82
2021/11/19 07:46:13;;;;;;;29.40;6.80;;;11.70;99.90;;;;;;6211678;23;20471;-80
2021/11/19 07:48:40;;;;;;;32.50;7.18;;;11.70;99.90;;;;;;6187978;23;20047;-80
2021/11/19 07:51:18;;;;;;;31.23;6.75;;;11.70;99.90;;;;;;6210347;23;20162;-80
2021/11/19 07:53:45;;;;;;;23.55;6.25;;;11.70;99.90;;;;;;6186755;23;20059;-77
2021/11/19 07:56:13;;;;;;;22.77;5.60;;;11.70;99.90;;;;;;6210644;23;20111;-77
2021/11/19 07:58:40;;;;;;;24.27;5.55;;;11.80;99.90;;;;;;6211771;23;20086;-76
2021/11/19 08:01:06;;;;;;;27.25;5.88;;;11.70;99.90;;;;;;6210616;23;20016;-77
2021/11/19 08:03:32;;;;;;;23.10;5.05;;;11.80;99.90;;;;;;6211432;23;20123;-78
2021/11/19 08:06:03;;;;;;;31.95;6.25;;;11.80;99.90;;;;;;6208324;23;20048;-80
2021/11/19 08:08:32;;;;;;;25.67;5.25;;;11.80;99.90;;;;;;6186571;23;20099;-76
2021/11/19 08:11:00;;;;;;;29.77;5.68;;;11.80;99.90;;;;;;6209818;23;20117;-77
2021/11/19 08:13:26;;;;;;;27.25;4.70;;;11.80;99.90;;;;;;6212081;23;20015;-77
2021/11/19 08:15:52;;;;;;;19.38;4.38;;;11.80;99.90;;;;;;6237879;23;20570;-78
2021/11/19 08:18:22;;;;;;;19.98;4.20;;;11.90;99.90;;;;;;6235977;23;20016;-78
2021/11/19 08:20:50;;;;;;;24.83;4.70;;;11.90;99.90;;;;;;6212659;23;20019;-78
2021/11/19 08:23:23;;;;;;;26.63;5.15;;;11.90;99.90;;;;;;6239824;23;20027;-77
2021/11/19 08:25:50;;;;;;;20.67;4.88;;;12.00;99.90;;;;;;6238821;23;20102;-78
2021/11/19 08:28:16;;;;;;;16.77;4.40;;;11.90;99.90;;;;;;6236894;23;20023;-79
2021/11/19 08:30:46;;;;;;;17.88;3.72;;;11.90;99.90;;;;;;6211878;23;20015;-78
2021/11/19 08:33:14;;;;;;;23.15;4.45;;;12.00;99.90;;;;;;6240062;23;20012;-77
2021/11/19 08:35:42;;;;;;;28.60;4.43;;;11.90;99.90;;;;;;6213603;23;20016;-79
2021/11/19 08:38:14;;;;;;;19.02;3.42;;;12.00;99.90;;;;;;6240058;23;20055;-77
2021/11/19 08:40:44;;;;;;;24.65;4.53;;;12.00;99.90;;;;;;6212938;23;20043;-75
2021/11/19 08:43:12;;;;;;;23.25;4.22;;;12.00;99.90;;;;;;6240594;23;20011;-76
2021/11/19 08:45:39;;;;;;;21.65;4.32;;;12.10;99.90;;;;;;6212533;23;20432;-76
2021/11/19 08:48:05;;;;;;;27.33;4.15;;;12.10;99.90;;;;;;6239689;23;20400;-76
2021/11/19 08:50:33;;;;;;;26.73;4.75;;;12.10;99.90;;;;;;6212902;23;20444;-78
2021/11/19 08:53:07;;;;;;;21.50;4.57;;;12.10;99.90;;;;;;6239755;23;20016;-78
2021/11/19 08:55:33;;;;;;;21.73;4.32;;;12.10;99.90;;;;;;6214406;23;20321;-78
2021/11/19 08:57:59;;;;;;;25.98;4.07;;;12.10;99.90;;;;;;6240607;23;20016;-78
2021/11/19 09:00:28;;;;;;;27.70;4.57;;;12.10;99.90;;;;;;6239846;23;20012;-78
2021/11/19 09:03:07;;;;;;;20.67;4.22;;;12.00;99.90;;;;;;6215235;23;20082;-79
2021/11/19 09:05:35;;;;;;;19.50;4.15;;;12.00;99.90;;;;;;6214646;23;20096;-77
2021/11/19 09:08:01;;;;;;;26.85;4.18;;;11.90;99.90;;;;;;6238965;23;20445;-79
2021/11/19 09:10:27;;;;;;;24.08;4.15;;;11.90;99.90;;;;;;6213214;23;20101;-81
2021/11/19 09:12:53;;;;;;;18.45;3.72;;;11.90;99.90;;;;;;6214288;23;20582;-77
2021/11/19 09:15:22;;;;;;;25.63;4.70;;;11.80;99.90;;;;;;6212873;23;20153;-80
2021/11/19 09:18:19;;;;;;;25.92;4.38;;;11.80;99.90;;;;;;6214112;23;20087;-79
2021/11/19 09:20:58;;;;;;;18.83;4.32;;;11.70;99.90;;;;;;6187574;23;20483;-78
2021/11/19 09:23:27;;;;;;;21.50;4.00;;;11.70;99.90;;;;;;6212033;23;20535;-79
2021/11/19 09:25:56;;;;;;;21.63;4.50;;;11.70;99.90;;;;;;6191328;23;20024;-78
2021/11/19 09:28:25;;;;;;;22.23;4.22;;;11.70;99.90;;;;;;6214225;23;20012;-78
2021/11/19 09:30:54;;;;;;;21.48;4.00;;;11.60;99.90;;;;;;6187587;23;20507;-77
2021/11/19 09:33:22;;;;;;;26.13;4.45;;;11.60;99.90;;;;;;6213937;23;20095;-78
2021/11/19 09:35:49;;;;;;;21.52;4.47;;;11.70;99.90;;;;;;6190939;23;20098;-79
2021/11/19 09:38:16;;;;;;;21.30;4.32;;;11.60;99.90;;;;;;6214927;23;20080;-78
2021/11/19 09:40:46;;;;;;;30.35;5.15;;;11.60;99.90;;;;;;6189542;23;20040;-79
2021/11/19 09:43:29;;;;;;;21.77;4.50;;;11.60;99.90;;;;;;6214802;23;20019;-78
2021/11/19 09:46:39;;;;;;;25.55;4.30;;;11.60;99.90;;;;;;6187025;23;20012;-78
2021/11/19 09:49:12;;;;;;;20.75;4.18;;;11.50;99.90;;;;;;6094229;23;20018;-80
2021/11/19 09:51:51;;;;;;;22.63;3.85;;;11.50;99.90;;;;;;6095559;23;20073;-78
2021/11/19 09:54:50;;;;;;;23.02;4.05;;;11.50;99.90;;;;;;6070659;23;20010;-78
2021/11/19 09:57:55;;;;;;;24.58;4.95;;;11.50;99.90;;;;;;6071530;23;20022;-77
2021/11/19 10:00:35;;;;;;;22.15;4.05;;;11.40;99.90;;;;;;6091523;23;20018;-81
2021/11/19 10:03:33;;;;;;;24.98;4.40;;;11.50;99.90;;;;;;6092679;23;20049;-82
2021/11/19 10:06:14;;;;;;;18.83;4.32;;;11.60;99.90;;;;;;6124887;23;20021;-80
2021/11/19 10:08:53;;;;;;;19.33;3.75;;;11.70;99.90;;;;;;6181116;23;20025;-80
2021/11/19 10:12:00;;;;;;;30.90;4.97;;;11.80;99.90;;;;;;6179037;23;20105;-77
2021/11/19 10:14:31;;;;;;;23.83;3.95;;;11.90;99.90;;;;;;6064740;23;21040;-79
2021/11/19 10:16:59;;;;;;;22.80;4.18;;;12.00;99.90;;;;;;6065473;23;20069;-81
2021/11/19 10:19:30;;;;;;;22.15;4.05;;;12.10;99.90;;;;;;6067273;23;20014;-81
2021/11/19 10:22:04;;;;;;;22.55;3.97;;;12.10;99.90;;;;;;6041855;23;20015;-79
2021/11/19 10:24:46;;;;;;;29.92;4.38;;;12.20;99.90;;;;;;6065790;23;20301;-82
2021/11/19 10:27:18;;;;;;;25.30;4.05;;;12.30;99.90;;;;;;6066109;23;20045;-82
2021/11/19 10:30:07;;;;;;;20.25;4.25;;;12.40;99.90;;;;;;6062107;23;20026;-84
2021/11/19 10:32:43;;;;;;;21.58;4.00;;;12.40;99.90;;;;;;6068270;23;20021;-82
2021/11/19 10:36:11;;;;;;;16.60;4.07;;;12.30;99.90;;;;;;6065127;23;20084;-85
2021/11/19 10:38:58;;;;;;;16.40;3.63;;;12.20;99.90;;;;;;6005464;23;20015;-79
2021/11/19 10:41:47;;;;;;;26.58;4.03;;;12.40;99.90;;;;;;5980949;23;20051;-78
2021/11/19 10:44:31;;;;;;;19.48;3.45;;;12.50;99.90;;;;;;5979675;23;20098;-82
2021/11/19 10:47:17;;;;;;;17.90;3.50;;;12.60;99.90;;;;;;5980036;23;20019;-79
2021/11/19 10:49:49;;;;;;;19.35;3.95;;;12.60;99.90;;;;;;6089807;23;20706;-79
2021/11/19 10:52:23;;;;;;;22.73;4.28;;;12.70;99.90;;;;;;6068138;23;20292;-78
2021/11/19 10:55:21;;;;;;;18.73;3.28;;;12.70;99.90;;;;;;6067371;23;20032;-78
2021/11/19 10:58:31;;;;;;;21.50;3.22;;;12.80;99.90;;;;;;6068209;23;20015;-79
2021/11/19 11:01:00;;;;;;;15.45;2.60;;;12.80;99.90;;;;;;6066598;23;20514;-78
2021/11/19 11:03:38;;;;;;;15.45;2.92;;;13.00;99.90;;;;;;6044552;23;20404;-78
2021/11/19 11:06:07;;;;;;;15.77;2.90;;;13.00;99.90;;;;;;6098184;23;20083;-78
2021/11/19 11:08:36;;;;;;;21.38;3.38;;;13.10;99.90;;;;;;6180951;23;20469;-78
2021/11/19 11:11:34;;;;;;;19.50;3.30;;;13.10;99.90;;;;;;6181932;23;20019;-77
2021/11/19 11:14:03;;;;;;;19.67;3.10;;;13.10;99.90;;;;;;6157123;23;20357;-78
2021/11/19 11:16:38;;;;;;;16.40;3.35;;;13.20;99.90;;;;;;6181205;23;20120;-79
2021/11/19 11:19:09;;;;;;;14.25;2.55;;;13.20;99.90;;;;;;6182112;23;20083;-78
2021/11/19 11:21:50;;;;;;;17.60;3.25;;;13.20;99.90;;;;;;6181645;23;20067;-79
2021/11/19 11:24:16;;;;;;;13.23;2.83;;;13.20;99.90;;;;;;6153764;23;20045;-78
2021/11/19 11:26:52;;;;;;;19.10;2.83;;;13.20;99.90;;;;;;6180110;23;20021;-77
2021/11/19 11:29:18;;;;;;;17.65;2.95;;;13.10;99.90;;;;;;6177184;23;20017;-77
2021/11/19 11:32:05;;;;;;;21.98;3.22;;;13.20;99.90;;;;;;6180491;23;20391;-79
2021/11/19 11:34:53;;;;;;;20.40;3.40;;;13.20;99.90;;;;;;6154765;23;20048;-79
2021/11/19 11:37:56;;;;;;;12.27;2.88;;;13.20;99.90;;;;;;6094979;23;20029;-78
2021/11/19 11:40:51;;;;;;;17.10;2.75;;;13.20;99.90;;;;;;6094745;23;20058;-79
2021/11/19 11:43:29;;;;;;;21.17;3.30;;;13.30;99.90;;;;;;6070304;23;20022;-78
2021/11/19 11:46:19;;;;;;;17.60;2.60;;;13.40;99.90;;;;;;6069632;23;20066;-78
2021/11/19 11:49:03;;;;;;;16.65;2.58;;;13.40;99.90;;;;;;6090547;23;20177;-78
2021/11/19 11:51:46;;;;;;;13.77;2.70;;;13.60;99.90;;;;;;6096838;23;20014;-78
2021/11/19 11:54:37;;;;;;;10.68;2.97;;;13.70;99.90;;;;;;6092801;23;20081;-78
2021/11/19 11:57:23;;;;;;;17.08;3.10;;;13.70;99.90;;;;;;6093017;23;20126;-77
2021/11/19 11:59:57;;;;;;;11.25;2.80;;;13.70;99.90;;;;;;6092792;23;20017;-77
2021/11/19 12:02:41;;;;;;;16.47;3.23;;;13.90;99.90;;;;;;6093267;23;20407;-78
2021/11/19 12:05:29;;;;;;;14.98;3.03;;;13.80;99.90;;;;;;6094923;23;20246;-78
2021/11/19 12:08:17;;;;;;;17.17;3.03;;;13.70;99.90;;;;;;6095861;23;20114;-77
2021/11/19 12:11:20;;;;;;;11.73;2.60;;;13.60;99.90;;;;;;6093499;23;20053;-77
2021/11/19 12:13:51;;;;;;;20.75;4.15;;;13.70;99.90;;;;;;6111817;23;20017;-77
2021/11/19 12:16:55;;;;;;;16.55;3.00;;;13.80;99.90;;;;;;6178655;23;20027;-78
2021/11/19 12:19:46;;;;;;;14.13;2.97;;;13.80;99.90;;;;;;6153014;23;20021;-77
2021/11/19 12:22:25;;;;;;;14.35;2.95;;;13.90;99.90;;;;;;6154606;23;20013;-76
2021/11/19 12:25:25;;;;;;;17.33;3.03;;;13.90;99.90;;;;;;6178012;23;20052;-79
2021/11/19 12:28:03;;;;;;;18.00;3.45;;;14.20;99.90;;;;;;6155616;23;20025;-77
2021/11/19 12:30:44;;;;;;;15.35;3.10;;;14.30;99.90;;;;;;6179109;23;20421;-80
2021/11/19 12:33:23;;;;;;;15.85;3.00;;;14.50;99.90;;;;;;6154961;23;20013;-78
2021/11/19 12:36:03;;;;;;;14.63;2.45;;;14.60;99.90;;;;;;6154726;23;20052;-79
2021/11/19 12:38:32;;;;;;;14.60;2.55;;;14.70;99.90;;;;;;6178611;23;20080;-79
2021/11/19 12:41:12;;;;;;;19.60;2.75;;;14.90;99.90;;;;;;6181212;23;20013;-79
2021/11/19 12:43:50;;;;;;;12.98;2.28;;;14.80;99.90;;;;;;6179469;23;20024;-77
2021/11/19 12:46:22;;;;;;;11.13;2.17;;;14.90;99.90;;;;;;6178629;23;20086;-76
2021/11/19 12:48:56;;;;;;;12.70;2.75;;;14.80;99.90;;;;;;6180076;23;20020;-81
2021/11/19 12:51:40;;;;;;;10.32;1.95;;;14.80;99.90;;;;;;6179935;23;20088;-82
2021/11/19 12:54:30;;;;;;;17.27;2.83;;;14.70;99.90;;;;;;6178541;23;20020;-80
2021/11/19 12:56:59;;;;;;;8.07;2.25;;;14.60;99.90;;;;;;6177638;23;20059;-79
2021/11/19 12:59:49;;;;;;;18.33;2.63;;;14.40;99.90;;;;;;6154079;23;20013;-79
2021/11/19 13:02:26;;;;;;;16.92;2.78;;;14.30;99.90;;;;;;6180792;23;20017;-78
2021/11/19 13:05:11;;;;;;;14.65;2.78;;;14.20;99.90;;;;;;6180077;23;20024;-77